createdAt,value
2023-04-07T00:00:08.734Z,9.13
2023-04-07T00:10:11.890Z,10.50
2023-04-07T00:20:16.165Z,11.02
2023-04-07T00:30:18.975Z,11.48
2023-04-07T00:40:23.240Z,12.75
2023-04-07T00:50:26.628Z,10.20
2023-04-07T01:00:32.783Z,12.50
2023-04-07T01:10:42.995Z,10.80
2023-04-07T01:20:50.484Z,17.70
2023-04-07T01:30:57.846Z,20.05
2023-04-07T01:41:02.846Z,14.32
2023-04-07T01:51:07.725Z,16.23
2023-04-07T02:01:10.756Z,15.68
2023-04-07T02:11:17.497Z,16.77
2023-04-07T02:21:21.371Z,17.30
2023-04-07T02:31:25.558Z,14.48
2023-04-07T02:41:28.510Z,15.30
2023-04-07T02:51:32.686Z,14.68
2023-04-07T03:01:36.315Z,18.80
2023-04-07T03:11:41.550Z,13.90
2023-04-07T03:21:44.421Z,16.38
2023-04-07T03:31:48.596Z,16.85
2023-04-07T03:41:51.681Z,17.20
2023-04-07T03:51:55.848Z,23.10
2023-04-07T04:01:58.780Z,22.45
2023-04-07T04:12:02.971Z,21.55
2023-04-07T04:22:05.656Z,23.52
2023-04-07T04:32:09.698Z,22.10
2023-04-07T04:42:12.617Z,23.42
2023-04-07T04:52:16.928Z,25.60
2023-04-07T05:02:19.760Z,27.00
2023-04-07T05:12:23.938Z,27.35
2023-04-07T05:22:26.630Z,28.90
2023-04-07T05:32:30.738Z,24.25
2023-04-07T05:42:33.368Z,25.08
2023-04-07T05:52:37.357Z,23.27
2023-04-07T06:02:40.858Z,21.75
2023-04-07T06:12:45.167Z,23.40
2023-04-07T06:22:47.906Z,18.40
2023-04-07T06:32:51.996Z,17.42
2023-04-07T06:42:56.637Z,15.93
2023-04-07T06:53:00.983Z,15.50
2023-04-07T07:03:03.873Z,19.80
2023-04-07T07:13:08.221Z,17.98
2023-04-07T07:23:11.497Z,15.25
2023-04-07T07:33:15.544Z,15.52
2023-04-07T07:43:18.185Z,14.35
2023-04-07T07:53:22.198Z,15.10
2023-04-07T08:03:25.109Z,13.55
2023-04-07T08:13:29.255Z,15.63
2023-04-07T08:23:32.227Z,13.00
2023-04-07T08:33:36.351Z,12.88
2023-04-07T08:43:40.009Z,12.00
2023-04-07T08:53:50.137Z,9.70
2023-04-07T09:03:53.417Z,13.07
2023-04-07T09:13:59.043Z,10.40
2023-04-07T09:24:01.906Z,12.30
2023-04-07T09:34:24.315Z,21.25
2023-04-07T09:44:27.306Z,11.13
2023-04-07T09:54:38.953Z,11.20
2023-04-07T10:04:42.423Z,12.98
2023-04-07T10:14:48.231Z,12.82
2023-04-07T10:24:57.328Z,12.75
2023-04-07T10:35:03.004Z,14.10
2023-04-07T10:45:06.661Z,12.82
2023-04-07T10:55:39.402Z,13.20
2023-04-07T11:05:43.056Z,11.07
2023-04-07T11:15:51.212Z,15.68
2023-04-07T11:25:55.353Z,15.32
2023-04-07T11:36:01.433Z,14.32
2023-04-07T11:46:09.462Z,13.82
2023-04-07T11:56:18.381Z,14.18
2023-04-07T12:06:29.072Z,15.60
2023-04-07T12:16:34.017Z,14.18
2023-04-07T12:26:38.602Z,13.52
2023-04-07T12:36:42.661Z,13.88
2023-04-07T12:46:45.462Z,13.88
2023-04-07T12:56:49.753Z,12.55
2023-04-07T13:06:52.550Z,12.60
2023-04-07T13:16:56.795Z,11.88
2023-04-07T13:27:00.101Z,12.75
2023-04-07T13:37:04.780Z,11.68
2023-04-07T13:47:08.610Z,13.25
2023-04-07T13:57:14.506Z,15.07
2023-04-07T14:07:17.556Z,12.32
2023-04-07T14:17:21.948Z,10.50
2023-04-07T14:27:24.743Z,9.40
2023-04-07T14:37:29.212Z,9.05
2023-04-07T14:47:32.002Z,11.15
2023-04-07T14:57:36.104Z,9.32
2023-04-07T15:07:38.858Z,9.75
2023-04-07T15:17:44.972Z,10.18
2023-04-07T15:27:48.203Z,11.52
2023-04-07T15:37:52.302Z,9.25
2023-04-07T15:47:55.091Z,11.70
2023-04-07T15:57:59.365Z,12.23
2023-04-07T16:08:02.082Z,12.30
2023-04-07T16:18:08.341Z,11.23
2023-04-07T16:28:11.199Z,9.35
2023-04-07T16:38:15.329Z,9.57
2023-04-07T16:48:18.148Z,12.10
2023-04-07T16:58:22.348Z,11.40
2023-04-07T17:08:25.742Z,8.82
2023-04-07T17:18:29.924Z,10.95
2023-04-07T17:28:32.814Z,7.93
2023-04-07T17:38:36.896Z,7.72
2023-04-07T17:48:39.580Z,10.20
2023-04-07T17:58:45.455Z,9.98
2023-04-07T18:08:49.791Z,11.40
2023-04-07T18:18:53.814Z,8.07
2023-04-07T18:28:57.491Z,11.95
2023-04-07T18:39:01.536Z,9.30
2023-04-07T18:49:04.556Z,10.43
2023-04-07T18:59:08.742Z,11.52
2023-04-07T19:09:11.642Z,11.13
2023-04-07T19:19:16.883Z,9.93
2023-04-07T19:29:19.690Z,7.40
2023-04-07T19:39:23.764Z,7.20
2023-04-07T19:49:26.609Z,6.75
2023-04-07T19:59:30.704Z,7.18
2023-04-07T20:09:33.434Z,6.68
2023-04-07T20:19:37.542Z,5.78
2023-04-07T20:29:40.208Z,6.50
2023-04-07T20:39:44.217Z,7.10
2023-04-07T20:49:47.068Z,5.63
2023-04-07T20:59:51.163Z,7.07
2023-04-07T21:09:53.871Z,7.00
2023-04-07T21:19:57.969Z,8.43
2023-04-07T21:30:01.081Z,6.65
2023-04-07T21:40:05.968Z,10.50
2023-04-07T21:50:09.369Z,10.82
2023-04-07T22:00:15.819Z,7.65
2023-04-07T22:10:18.488Z,15.10
2023-04-07T22:20:22.757Z,8.70
2023-04-07T22:30:25.757Z,9.90
2023-04-07T22:40:30.019Z,10.35
2023-04-07T22:50:32.688Z,9.52
2023-04-07T23:00:36.723Z,7.50
2023-04-07T23:10:39.553Z,8.93
2023-04-07T23:20:50.882Z,8.98
2023-04-07T23:30:54.701Z,11.05
2023-04-07T23:40:58.714Z,10.43
2023-04-07T23:51:01.381Z,11.45
